SAS41C EGLL-EKCH
Flight info
| Callsign | SAS41C |
|---|---|
| Flight time | 1h 32m |
| Altitude | 35000 |
| Route | BPK Q295 MATCH DCT SOMVA DCT MAVAS DCT AGISU DCT TALSA P729 TUDLO |
| Aircraft | MD82/M-SDFGIRWY/S |
Departure
| Time | 2026-04-22 11:37 |
|---|---|
| Airport | London Heathrow Airport (EGLL) |
Arrival
| Time | 2026-04-22 13:09 |
|---|---|
| Airport | Copenhagen Kastrup Airport (EKCH) |
| Time | Latitude | Longitude | Altitude | Speed | Heading |
|---|---|---|---|---|---|
| 2026-04-22 11:07 | 51.47037 | -0.44662 | 87 ft | 0 kts | 270° |
| 2026-04-22 11:25 | 51.47037 | -0.44661 | 87 ft | 2 kts | 270° |
| 2026-04-22 11:25 | 51.47037 | -0.44620 | 87 ft | 4 kts | 270° |
| 2026-04-22 11:25 | 51.47038 | -0.44580 | 87 ft | 4 kts | 250° |
| 2026-04-22 11:25 | 51.47050 | -0.44558 | 91 ft | 4 kts | 193° |
| 2026-04-22 11:26 | 51.47069 | -0.44556 | 88 ft | 4 kts | 180° |
| 2026-04-22 11:26 | 51.47086 | -0.44556 | 88 ft | 0 kts | 180° |
| 2026-04-22 11:29 | 51.47080 | -0.44556 | 87 ft | 2 kts | 180° |
| 2026-04-22 11:29 | 51.47052 | -0.44556 | 87 ft | 8 kts | 180° |
| 2026-04-22 11:29 | 51.46981 | -0.44556 | 87 ft | 11 kts | 180° |
| 2026-04-22 11:29 | 51.46903 | -0.44555 | 87 ft | 12 kts | 180° |
| 2026-04-22 11:30 | 51.46820 | -0.44555 | 87 ft | 12 kts | 180° |
| 2026-04-22 11:30 | 51.46734 | -0.44553 | 88 ft | 13 kts | 179° |
| 2026-04-22 11:30 | 51.46667 | -0.44616 | 87 ft | 12 kts | 257° |
| 2026-04-22 11:30 | 51.46664 | -0.44755 | 87 ft | 13 kts | 270° |
| 2026-04-22 11:31 | 51.46664 | -0.44904 | 87 ft | 14 kts | 270° |
| 2026-04-22 11:31 | 51.46663 | -0.45070 | 87 ft | 16 kts | 269° |
| 2026-04-22 11:31 | 51.46663 | -0.45254 | 87 ft | 17 kts | 269° |
| 2026-04-22 11:31 | 51.46662 | -0.45457 | 87 ft | 19 kts | 270° |
| 2026-04-22 11:32 | 51.46661 | -0.45676 | 87 ft | 20 kts | 270° |
| 2026-04-22 11:32 | 51.46661 | -0.45905 | 87 ft | 21 kts | 270° |
| 2026-04-22 11:32 | 51.46660 | -0.46141 | 91 ft | 21 kts | 269° |
| 2026-04-22 11:32 | 51.46660 | -0.46383 | 87 ft | 22 kts | 270° |
| 2026-04-22 11:33 | 51.46658 | -0.46631 | 91 ft | 23 kts | 269° |
| 2026-04-22 11:33 | 51.46658 | -0.46886 | 91 ft | 23 kts | 269° |
| 2026-04-22 11:33 | 51.46656 | -0.47148 | 90 ft | 24 kts | 270° |
| 2026-04-22 11:33 | 51.46655 | -0.47414 | 88 ft | 25 kts | 269° |
| 2026-04-22 11:34 | 51.46654 | -0.47694 | 87 ft | 24 kts | 270° |
| 2026-04-22 11:34 | 51.46654 | -0.47931 | 87 ft | 21 kts | 270° |
| 2026-04-22 11:34 | 51.46653 | -0.48167 | 87 ft | 22 kts | 269° |
| 2026-04-22 11:34 | 51.46652 | -0.48381 | 87 ft | 15 kts | 269° |
| 2026-04-22 11:35 | 51.46621 | -0.48466 | 88 ft | 6 kts | 191° |
| 2026-04-22 11:35 | 51.46596 | -0.48467 | 87 ft | 3 kts | 179° |
| 2026-04-22 11:35 | 51.46572 | -0.48467 | 87 ft | 4 kts | 179° |
| 2026-04-22 11:35 | 51.46528 | -0.48467 | 87 ft | 9 kts | 180° |
| 2026-04-22 11:36 | 51.46480 | -0.48419 | 90 ft | 9 kts | 105° |
| 2026-04-22 11:36 | 51.46479 | -0.48324 | 88 ft | 10 kts | 90° |
| 2026-04-22 11:36 | 51.46479 | -0.48142 | 88 ft | 35 kts | 90° |
| 2026-04-22 11:36 | 51.46482 | -0.47390 | 87 ft | 99 kts | 90° |
| 2026-04-22 11:37 | 51.46486 | -0.45971 | 146 ft | 149 kts | 89° |
| 2026-04-22 11:37 | 51.46488 | -0.44290 | 950 ft | 149 kts | 89° |
| 2026-04-22 11:37 | 51.46510 | -0.42654 | 1728 ft | 157 kts | 88° |
| 2026-04-22 11:37 | 51.46836 | -0.40965 | 2448 ft | 167 kts | 62° |
| 2026-04-22 11:38 | 51.47493 | -0.39341 | 3072 ft | 182 kts | 58° |
| 2026-04-22 11:38 | 51.48278 | -0.37595 | 3568 ft | 204 kts | 56° |
| 2026-04-22 11:38 | 51.50158 | -0.33718 | 4698 ft | 237 kts | 56° |
| 2026-04-22 11:39 | 51.51209 | -0.31641 | 5353 ft | 247 kts | 56° |
| 2026-04-22 11:39 | 51.52304 | -0.29482 | 5990 ft | 255 kts | 61° |
| 2026-04-22 11:39 | 51.53042 | -0.26878 | 6820 ft | 238 kts | 75° |
| 2026-04-22 11:39 | 51.53533 | -0.24535 | 8063 ft | 218 kts | 76° |
| 2026-04-22 11:40 | 51.54049 | -0.22025 | 7888 ft | 255 kts | 76° |
| 2026-04-22 11:40 | 51.54777 | -0.19480 | 8615 ft | 257 kts | 57° |
| 2026-04-22 11:40 | 51.56257 | -0.17681 | 9018 ft | 277 kts | 25° |
| 2026-04-22 11:40 | 51.58139 | -0.17252 | 9675 ft | 280 kts | 1° |
| 2026-04-22 11:41 | 51.60055 | -0.17194 | 10213 ft | 271 kts | 14° |
| 2026-04-22 11:41 | 51.61914 | -0.16568 | 10711 ft | 277 kts | 19° |
| 2026-04-22 11:41 | 51.63838 | -0.15774 | 10980 ft | 295 kts | 19° |
| 2026-04-22 11:41 | 51.65886 | -0.14910 | 11180 ft | 313 kts | 19° |
| 2026-04-22 11:42 | 51.68052 | -0.13964 | 11384 ft | 331 kts | 19° |
| 2026-04-22 11:42 | 51.70328 | -0.12930 | 11578 ft | 348 kts | 20° |
| 2026-04-22 11:42 | 51.72618 | -0.11550 | 11864 ft | 353 kts | 35° |
| 2026-04-22 11:42 | 51.74420 | -0.09024 | 12415 ft | 347 kts | 57° |
| 2026-04-22 11:43 | 51.75453 | -0.05581 | 13100 ft | 338 kts | 79° |
| 2026-04-22 11:43 | 51.75885 | -0.01883 | 13855 ft | 334 kts | 84° |
| 2026-04-22 11:43 | 51.76204 | 0.01829 | 14446 ft | 335 kts | 85° |
| 2026-04-22 11:43 | 51.76486 | 0.05617 | 14805 ft | 344 kts | 86° |
| 2026-04-22 11:44 | 51.76746 | 0.09448 | 15275 ft | 349 kts | 85° |
| 2026-04-22 11:44 | 51.77012 | 0.13364 | 15852 ft | 351 kts | 85° |
| 2026-04-22 11:44 | 51.77290 | 0.17308 | 16347 ft | 356 kts | 85° |
| 2026-04-22 11:44 | 51.77588 | 0.21299 | 16904 ft | 358 kts | 85° |
| 2026-04-22 11:45 | 51.77935 | 0.25275 | 17541 ft | 360 kts | 79° |
| 2026-04-22 11:45 | 51.78677 | 0.29180 | 17971 ft | 368 kts | 71° |
| 2026-04-22 11:45 | 51.79605 | 0.33027 | 18617 ft | 367 kts | 70° |
| 2026-04-22 11:45 | 51.80552 | 0.36889 | 19052 ft | 372 kts | 70° |
| 2026-04-22 11:46 | 51.81508 | 0.40806 | 19403 ft | 378 kts | 70° |
| 2026-04-22 11:46 | 51.82464 | 0.44766 | 19899 ft | 380 kts | 69° |
| 2026-04-22 11:46 | 51.83411 | 0.48789 | 20294 ft | 385 kts | 70° |
| 2026-04-22 11:46 | 51.84364 | 0.52837 | 20822 ft | 386 kts | 70° |
| 2026-04-22 11:47 | 51.85310 | 0.56924 | 21197 ft | 392 kts | 70° |
| 2026-04-22 11:47 | 51.86256 | 0.61066 | 21720 ft | 393 kts | 69° |
| 2026-04-22 11:47 | 51.87203 | 0.65238 | 22129 ft | 398 kts | 69° |
| 2026-04-22 11:47 | 51.88164 | 0.69459 | 22535 ft | 402 kts | 69° |
| 2026-04-22 11:48 | 51.89133 | 0.73718 | 22984 ft | 405 kts | 68° |
| 2026-04-22 11:48 | 51.90118 | 0.78021 | 23374 ft | 409 kts | 66° |
| 2026-04-22 11:48 | 51.91111 | 0.82358 | 23839 ft | 412 kts | 68° |
| 2026-04-22 11:48 | 51.92118 | 0.86724 | 24179 ft | 416 kts | 68° |
| 2026-04-22 11:49 | 51.93122 | 0.91136 | 24553 ft | 418 kts | 67° |
| 2026-04-22 11:49 | 51.94125 | 0.95579 | 24894 ft | 422 kts | 67° |
| 2026-04-22 11:49 | 51.95120 | 1.00061 | 25383 ft | 421 kts | 69° |
| 2026-04-22 11:49 | 51.96115 | 1.04497 | 25918 ft | 420 kts | 69° |
| 2026-04-22 11:50 | 51.96768 | 1.07456 | 26139 ft | 422 kts | 68° |
| 2026-04-22 11:50 | 51.97760 | 1.11963 | 26468 ft | 426 kts | 68° |
| 2026-04-22 11:50 | 51.98772 | 1.16502 | 26774 ft | 430 kts | 67° |
| 2026-04-22 11:50 | 51.99789 | 1.21078 | 27148 ft | 432 kts | 67° |
| 2026-04-22 11:51 | 52.00816 | 1.25676 | 27490 ft | 436 kts | 67° |
| 2026-04-22 11:51 | 52.01854 | 1.30317 | 27861 ft | 438 kts | 67° |
| 2026-04-22 11:51 | 52.03232 | 1.36494 | 28347 ft | 441 kts | 66° |
| 2026-04-22 11:51 | 52.03938 | 1.39665 | 28579 ft | 443 kts | 66° |
| 2026-04-22 11:52 | 52.04991 | 1.44385 | 28935 ft | 446 kts | 66° |
| 2026-04-22 11:52 | 52.06049 | 1.49117 | 29443 ft | 444 kts | 67° |
| 2026-04-22 11:52 | 52.07117 | 1.53804 | 30106 ft | 440 kts | 68° |
| 2026-04-22 11:52 | 52.08138 | 1.58487 | 30575 ft | 439 kts | 68° |
| 2026-04-22 11:53 | 52.09142 | 1.63184 | 30899 ft | 440 kts | 68° |
| 2026-04-22 11:53 | 52.10130 | 1.67830 | 31207 ft | 441 kts | 68° |
| 2026-04-22 11:53 | 52.11134 | 1.72537 | 31547 ft | 440 kts | 68° |
| 2026-04-22 11:53 | 52.12142 | 1.77239 | 31925 ft | 440 kts | 68° |
| 2026-04-22 11:54 | 52.13154 | 1.81930 | 32284 ft | 439 kts | 68° |
| 2026-04-22 11:54 | 52.14166 | 1.86606 | 32616 ft | 438 kts | 68° |
| 2026-04-22 11:54 | 52.15183 | 1.91293 | 32910 ft | 439 kts | 68° |
| 2026-04-22 11:54 | 52.16199 | 1.95976 | 33232 ft | 438 kts | 67° |
| 2026-04-22 11:55 | 52.17218 | 2.00643 | 33645 ft | 435 kts | 68° |
| 2026-04-22 11:55 | 52.18227 | 2.05282 | 34058 ft | 433 kts | 68° |
| 2026-04-22 11:55 | 52.19224 | 2.09901 | 34351 ft | 433 kts | 68° |
| 2026-04-22 11:55 | 52.20221 | 2.14531 | 34579 ft | 433 kts | 68° |
| 2026-04-22 11:56 | 52.21192 | 2.19179 | 34799 ft | 434 kts | 70° |
| 2026-04-22 11:56 | 52.22099 | 2.23871 | 35009 ft | 434 kts | 70° |
| 2026-04-22 11:56 | 52.23005 | 2.28571 | 35212 ft | 434 kts | 69° |
| 2026-04-22 11:56 | 52.23948 | 2.33258 | 35315 ft | 436 kts | 69° |
| 2026-04-22 11:57 | 52.25945 | 2.42612 | 35388 ft | 434 kts | 68° |
| 2026-04-22 11:57 | 52.27985 | 2.51826 | 35412 ft | 428 kts | 68° |
| 2026-04-22 11:58 | 52.29982 | 2.60918 | 35414 ft | 423 kts | 69° |
| 2026-04-22 11:58 | 52.31795 | 2.70105 | 35416 ft | 427 kts | 73° |
| 2026-04-22 11:59 | 52.33344 | 2.79502 | 35414 ft | 429 kts | 71° |
| 2026-04-22 11:59 | 52.34470 | 2.83981 | 35418 ft | 425 kts | 55° |
| 2026-04-22 11:59 | 52.36304 | 2.87650 | 35427 ft | 422 kts | 43° |
| 2026-04-22 12:00 | 52.40326 | 2.94695 | 35415 ft | 424 kts | 49° |
| 2026-04-22 12:00 | 52.43890 | 3.02376 | 35421 ft | 423 kts | 52° |
| 2026-04-22 12:01 | 52.47249 | 3.10262 | 35418 ft | 421 kts | 53° |
| 2026-04-22 12:01 | 52.50572 | 3.18193 | 35416 ft | 422 kts | 53° |
| 2026-04-22 12:02 | 52.53930 | 3.26140 | 35409 ft | 424 kts | 53° |
| 2026-04-22 12:02 | 52.57297 | 3.34047 | 35410 ft | 421 kts | 53° |
| 2026-04-22 12:03 | 52.60627 | 3.41949 | 35412 ft | 419 kts | 54° |
| 2026-04-22 12:03 | 52.63927 | 3.49832 | 35417 ft | 419 kts | 53° |
| 2026-04-22 12:04 | 52.67249 | 3.57752 | 35420 ft | 420 kts | 53° |
| 2026-04-22 12:04 | 52.70574 | 3.65685 | 35420 ft | 421 kts | 53° |
| 2026-04-22 12:05 | 52.73880 | 3.73571 | 35424 ft | 420 kts | 54° |
| 2026-04-22 12:05 | 52.77194 | 3.81496 | 35424 ft | 418 kts | 54° |
| 2026-04-22 12:06 | 52.80498 | 3.89412 | 35432 ft | 418 kts | 54° |
| 2026-04-22 12:06 | 52.83786 | 3.97363 | 35433 ft | 420 kts | 54° |
| 2026-04-22 12:07 | 52.87067 | 4.05366 | 35441 ft | 420 kts | 54° |
| 2026-04-22 12:07 | 52.90339 | 4.13336 | 35434 ft | 416 kts | 54° |
| 2026-04-22 12:08 | 52.93584 | 4.21229 | 35425 ft | 413 kts | 54° |
| 2026-04-22 12:08 | 52.96826 | 4.29114 | 35427 ft | 414 kts | 54° |
| 2026-04-22 12:09 | 53.00071 | 4.37032 | 35433 ft | 416 kts | 54° |
| 2026-04-22 12:09 | 53.03325 | 4.44989 | 35433 ft | 417 kts | 54° |
| 2026-04-22 12:10 | 53.06566 | 4.52972 | 35432 ft | 416 kts | 55° |
| 2026-04-22 12:10 | 53.09747 | 4.60897 | 35438 ft | 414 kts | 55° |
| 2026-04-22 12:11 | 53.12952 | 4.68870 | 35432 ft | 415 kts | 54° |
| 2026-04-22 12:11 | 53.16171 | 4.76865 | 35427 ft | 416 kts | 55° |
| 2026-04-22 12:12 | 53.19393 | 4.84864 | 35426 ft | 415 kts | 55° |
| 2026-04-22 12:12 | 53.22571 | 4.92784 | 35428 ft | 414 kts | 55° |
| 2026-04-22 12:13 | 53.25765 | 5.00760 | 35427 ft | 413 kts | 55° |
| 2026-04-22 12:13 | 53.28960 | 5.08771 | 35427 ft | 414 kts | 55° |
| 2026-04-22 12:14 | 53.32129 | 5.16825 | 35433 ft | 414 kts | 56° |
| 2026-04-22 12:14 | 53.35267 | 5.24809 | 35433 ft | 411 kts | 56° |
| 2026-04-22 12:15 | 53.38409 | 5.32789 | 35434 ft | 410 kts | 55° |
| 2026-04-22 12:15 | 53.41558 | 5.40785 | 35438 ft | 412 kts | 55° |
| 2026-04-22 12:16 | 53.44719 | 5.48823 | 35442 ft | 413 kts | 56° |
| 2026-04-22 12:16 | 53.47882 | 5.56882 | 35441 ft | 413 kts | 56° |
| 2026-04-22 12:17 | 53.51041 | 5.64956 | 35434 ft | 413 kts | 56° |
| 2026-04-22 12:17 | 53.54158 | 5.73045 | 35444 ft | 411 kts | 56° |
| 2026-04-22 12:18 | 53.57257 | 5.81110 | 35430 ft | 409 kts | 56° |
| 2026-04-22 12:18 | 53.60352 | 5.89144 | 35427 ft | 409 kts | 56° |
| 2026-04-22 12:19 | 53.63448 | 5.97173 | 35429 ft | 408 kts | 56° |
| 2026-04-22 12:19 | 53.66537 | 6.05205 | 35428 ft | 409 kts | 56° |
| 2026-04-22 12:20 | 53.69630 | 6.13262 | 35433 ft | 409 kts | 56° |
| 2026-04-22 12:20 | 53.72726 | 6.21340 | 35433 ft | 410 kts | 56° |
| 2026-04-22 12:21 | 53.75799 | 6.29454 | 35442 ft | 410 kts | 57° |
| 2026-04-22 12:21 | 53.78847 | 6.37570 | 35436 ft | 407 kts | 57° |
| 2026-04-22 12:22 | 53.81863 | 6.45588 | 35435 ft | 406 kts | 57° |
| 2026-04-22 12:22 | 53.84905 | 6.53656 | 35431 ft | 407 kts | 57° |
| 2026-04-22 12:23 | 53.87951 | 6.61750 | 35433 ft | 407 kts | 57° |
| 2026-04-22 12:23 | 53.90993 | 6.69850 | 35433 ft | 408 kts | 57° |
| 2026-04-22 12:24 | 53.94040 | 6.77979 | 35428 ft | 408 kts | 57° |
| 2026-04-22 12:24 | 53.97080 | 6.86141 | 35445 ft | 408 kts | 57° |
| 2026-04-22 12:25 | 54.00077 | 6.94303 | 35435 ft | 406 kts | 57° |
| 2026-04-22 12:25 | 54.03041 | 7.02376 | 35431 ft | 405 kts | 57° |
| 2026-04-22 12:26 | 54.06031 | 7.10494 | 35427 ft | 405 kts | 57° |
| 2026-04-22 12:26 | 54.09016 | 7.18605 | 35429 ft | 404 kts | 57° |
| 2026-04-22 12:27 | 54.12001 | 7.26731 | 35428 ft | 405 kts | 57° |
| 2026-04-22 12:27 | 54.14990 | 7.34882 | 35430 ft | 405 kts | 57° |
| 2026-04-22 12:28 | 54.17976 | 7.43051 | 35448 ft | 406 kts | 57° |
| 2026-04-22 12:28 | 54.20932 | 7.51268 | 35431 ft | 406 kts | 58° |
| 2026-04-22 12:29 | 54.23876 | 7.59482 | 35425 ft | 404 kts | 58° |
| 2026-04-22 12:29 | 54.26796 | 7.67604 | 35416 ft | 402 kts | 58° |
| 2026-04-22 12:30 | 54.31190 | 7.79826 | 35423 ft | 402 kts | 58° |
| 2026-04-22 12:31 | 54.34120 | 7.87998 | 35424 ft | 403 kts | 58° |
| 2026-04-22 12:31 | 54.37057 | 7.96201 | 35417 ft | 404 kts | 58° |
| 2026-04-22 12:32 | 54.39990 | 8.04420 | 35429 ft | 404 kts | 58° |
| 2026-04-22 12:32 | 54.44331 | 8.16811 | 35406 ft | 402 kts | 58° |
| 2026-04-22 12:33 | 54.47211 | 8.25032 | 35396 ft | 401 kts | 59° |
| 2026-04-22 12:33 | 54.50096 | 8.33232 | 35405 ft | 400 kts | 59° |
| 2026-04-22 12:34 | 54.52962 | 8.41408 | 35401 ft | 398 kts | 59° |
| 2026-04-22 12:34 | 54.55823 | 8.49588 | 35401 ft | 399 kts | 59° |
| 2026-04-22 12:35 | 54.58672 | 8.57743 | 35401 ft | 400 kts | 59° |
| 2026-04-22 12:35 | 54.61539 | 8.65979 | 35406 ft | 401 kts | 59° |
| 2026-04-22 12:36 | 54.64373 | 8.74262 | 35398 ft | 400 kts | 59° |
| 2026-04-22 12:36 | 54.67194 | 8.82526 | 35397 ft | 398 kts | 59° |
| 2026-04-22 12:37 | 54.70016 | 8.90755 | 35377 ft | 396 kts | 60° |
| 2026-04-22 12:37 | 54.72344 | 8.97544 | 35381 ft | 394 kts | 60° |
| 2026-04-22 12:38 | 54.75129 | 9.05698 | 35384 ft | 394 kts | 60° |
| 2026-04-22 12:38 | 54.77918 | 9.13876 | 35371 ft | 395 kts | 60° |
| 2026-04-22 12:39 | 54.82115 | 9.26200 | 35394 ft | 396 kts | 60° |
| 2026-04-22 12:40 | 54.84883 | 9.34473 | 35380 ft | 396 kts | 60° |
| 2026-04-22 12:40 | 54.87629 | 9.42729 | 35366 ft | 394 kts | 60° |
| 2026-04-22 12:41 | 54.90356 | 9.50897 | 35358 ft | 393 kts | 61° |
| 2026-04-22 12:41 | 54.93091 | 9.59067 | 35367 ft | 389 kts | 61° |
| 2026-04-22 12:42 | 54.95772 | 9.67116 | 35373 ft | 388 kts | 61° |
| 2026-04-22 12:42 | 54.98481 | 9.75263 | 35374 ft | 390 kts | 61° |
| 2026-04-22 12:43 | 55.01198 | 9.83437 | 35373 ft | 390 kts | 61° |
| 2026-04-22 12:43 | 55.03892 | 9.91585 | 35379 ft | 391 kts | 62° |
| 2026-04-22 12:44 | 55.06566 | 9.99821 | 35366 ft | 389 kts | 62° |
| 2026-04-22 12:44 | 55.09226 | 10.08023 | 35359 ft | 388 kts | 62° |
| 2026-04-22 12:45 | 55.11877 | 10.16161 | 35345 ft | 386 kts | 62° |
| 2026-04-22 12:45 | 55.14519 | 10.24267 | 35342 ft | 381 kts | 62° |
| 2026-04-22 12:46 | 55.17147 | 10.32367 | 34894 ft | 389 kts | 63° |
| 2026-04-22 12:46 | 55.18482 | 10.36480 | 34440 ft | 389 kts | 63° |
| 2026-04-22 12:46 | 55.19824 | 10.40613 | 33428 ft | 392 kts | 63° |
| 2026-04-22 12:46 | 55.21176 | 10.44806 | 32226 ft | 399 kts | 62° |
| 2026-04-22 12:47 | 55.22551 | 10.49084 | 30958 ft | 408 kts | 62° |
| 2026-04-22 12:47 | 55.23974 | 10.53447 | 29540 ft | 416 kts | 60° |
| 2026-04-22 12:47 | 55.25461 | 10.57833 | 28140 ft | 419 kts | 59° |
| 2026-04-22 12:47 | 55.26972 | 10.62199 | 26807 ft | 417 kts | 59° |
| 2026-04-22 12:48 | 55.28215 | 10.66759 | 25545 ft | 414 kts | 71° |
| 2026-04-22 12:48 | 55.28962 | 10.71538 | 24552 ft | 409 kts | 75° |
| 2026-04-22 12:48 | 55.29634 | 10.76397 | 23629 ft | 400 kts | 74° |
| 2026-04-22 12:48 | 55.30306 | 10.81010 | 22768 ft | 389 kts | 73° |
| 2026-04-22 12:49 | 55.31007 | 10.85522 | 22028 ft | 377 kts | 72° |
| 2026-04-22 12:49 | 55.31723 | 10.89903 | 21396 ft | 370 kts | 72° |
| 2026-04-22 12:49 | 55.32452 | 10.94197 | 20826 ft | 364 kts | 71° |
| 2026-04-22 12:49 | 55.33172 | 10.98420 | 20261 ft | 358 kts | 72° |
| 2026-04-22 12:50 | 55.33877 | 11.02598 | 19625 ft | 355 kts | 72° |
| 2026-04-22 12:50 | 55.34579 | 11.06740 | 18998 ft | 352 kts | 72° |
| 2026-04-22 12:50 | 55.35275 | 11.10854 | 18327 ft | 350 kts | 72° |
| 2026-04-22 12:50 | 55.35964 | 11.14950 | 17637 ft | 348 kts | 72° |
| 2026-04-22 12:51 | 55.36642 | 11.19021 | 16978 ft | 345 kts | 72° |
| 2026-04-22 12:51 | 55.37310 | 11.23058 | 16359 ft | 341 kts | 72° |
| 2026-04-22 12:51 | 55.37970 | 11.27045 | 15740 ft | 338 kts | 72° |
| 2026-04-22 12:51 | 55.38622 | 11.30998 | 15125 ft | 335 kts | 72° |
| 2026-04-22 12:52 | 55.39262 | 11.34872 | 14522 ft | 333 kts | 71° |
| 2026-04-22 12:52 | 55.39906 | 11.38771 | 13898 ft | 331 kts | 71° |
| 2026-04-22 12:52 | 55.40543 | 11.42643 | 13244 ft | 328 kts | 71° |
| 2026-04-22 12:52 | 55.41173 | 11.46484 | 12628 ft | 325 kts | 71° |
| 2026-04-22 12:53 | 55.41792 | 11.50252 | 12353 ft | 312 kts | 71° |
| 2026-04-22 12:53 | 55.42378 | 11.53822 | 12265 ft | 295 kts | 71° |
| 2026-04-22 12:53 | 55.42930 | 11.57196 | 12182 ft | 279 kts | 71° |
| 2026-04-22 12:53 | 55.43461 | 11.60433 | 12118 ft | 275 kts | 71° |
| 2026-04-22 12:54 | 55.44069 | 11.63673 | 12037 ft | 279 kts | 60° |
| 2026-04-22 12:54 | 55.45072 | 11.66598 | 11935 ft | 280 kts | 53° |
| 2026-04-22 12:54 | 55.46189 | 11.69409 | 11771 ft | 280 kts | 52° |
| 2026-04-22 12:54 | 55.47319 | 11.72211 | 11576 ft | 280 kts | 52° |
| 2026-04-22 12:55 | 55.48446 | 11.75002 | 11387 ft | 280 kts | 52° |
| 2026-04-22 12:55 | 55.49575 | 11.77805 | 11145 ft | 280 kts | 52° |
| 2026-04-22 12:55 | 55.50681 | 11.80573 | 10935 ft | 270 kts | 52° |
| 2026-04-22 12:55 | 55.51736 | 11.83248 | 10687 ft | 263 kts | 52° |
| 2026-04-22 12:56 | 55.52765 | 11.85876 | 10416 ft | 259 kts | 52° |
| 2026-04-22 12:56 | 55.53785 | 11.88501 | 10164 ft | 260 kts | 52° |
| 2026-04-22 12:56 | 55.54799 | 11.91139 | 9971 ft | 260 kts | 52° |
| 2026-04-22 12:56 | 55.55814 | 11.93801 | 9787 ft | 262 kts | 52° |
| 2026-04-22 12:57 | 55.56833 | 11.96484 | 9584 ft | 264 kts | 53° |
| 2026-04-22 12:57 | 55.57856 | 11.99181 | 9368 ft | 265 kts | 53° |
| 2026-04-22 12:57 | 55.58879 | 12.01884 | 9146 ft | 264 kts | 53° |
| 2026-04-22 12:57 | 55.59897 | 12.04572 | 8911 ft | 262 kts | 53° |
| 2026-04-22 12:58 | 55.60912 | 12.07247 | 8675 ft | 261 kts | 53° |
| 2026-04-22 12:58 | 55.61920 | 12.09901 | 8444 ft | 259 kts | 50° |
| 2026-04-22 12:58 | 55.63116 | 12.12168 | 8231 ft | 254 kts | 39° |
| 2026-04-22 12:58 | 55.64458 | 12.14203 | 8014 ft | 254 kts | 37° |
| 2026-04-22 12:59 | 55.65812 | 12.16196 | 7803 ft | 253 kts | 37° |
| 2026-04-22 12:59 | 55.67162 | 12.18182 | 7597 ft | 252 kts | 37° |
| 2026-04-22 12:59 | 55.68509 | 12.20171 | 7365 ft | 252 kts | 39° |
| 2026-04-22 12:59 | 55.69540 | 12.22678 | 7136 ft | 258 kts | 67° |
| 2026-04-22 13:00 | 55.69696 | 12.25872 | 6931 ft | 269 kts | 98° |
| 2026-04-22 13:00 | 55.68920 | 12.28944 | 6541 ft | 280 kts | 127° |
| 2026-04-22 13:00 | 55.67444 | 12.31188 | 6189 ft | 280 kts | 145° |
| 2026-04-22 13:00 | 55.65809 | 12.33057 | 5875 ft | 279 kts | 145° |
| 2026-04-22 13:01 | 55.64208 | 12.34962 | 5596 ft | 276 kts | 144° |
| 2026-04-22 13:01 | 55.62643 | 12.36905 | 5331 ft | 274 kts | 144° |
| 2026-04-22 13:01 | 55.60901 | 12.38225 | 5108 ft | 276 kts | 173° |
| 2026-04-22 13:01 | 55.59023 | 12.37920 | 4944 ft | 271 kts | 204° |
| 2026-04-22 13:02 | 55.57428 | 12.36238 | 4762 ft | 267 kts | 221° |
| 2026-04-22 13:02 | 55.55981 | 12.34208 | 4595 ft | 261 kts | 223° |
| 2026-04-22 13:02 | 55.54621 | 12.32195 | 4509 ft | 250 kts | 224° |
| 2026-04-22 13:02 | 55.53341 | 12.30224 | 4420 ft | 240 kts | 223° |
| 2026-04-22 13:03 | 55.51906 | 12.28659 | 4349 ft | 247 kts | 204° |
| 2026-04-22 13:03 | 55.50208 | 12.27934 | 4149 ft | 256 kts | 184° |
| 2026-04-22 13:03 | 55.48476 | 12.28502 | 4040 ft | 253 kts | 154° |
| 2026-04-22 13:03 | 55.47000 | 12.30080 | 3969 ft | 247 kts | 141° |
| 2026-04-22 13:04 | 55.45725 | 12.31976 | 3896 ft | 238 kts | 132° |
| 2026-04-22 13:04 | 55.44894 | 12.34359 | 3819 ft | 225 kts | 97° |
| 2026-04-22 13:04 | 55.44968 | 12.37083 | 3765 ft | 227 kts | 62° |
| 2026-04-22 13:04 | 55.45820 | 12.39269 | 3651 ft | 210 kts | 40° |
| 2026-04-22 13:05 | 55.46751 | 12.41202 | 3451 ft | 207 kts | 45° |
| 2026-04-22 13:05 | 55.47762 | 12.42963 | 3211 ft | 202 kts | 33° |
| 2026-04-22 13:05 | 55.48826 | 12.44452 | 3099 ft | 189 kts | 32° |
| 2026-04-22 13:05 | 55.49808 | 12.45875 | 3014 ft | 177 kts | 33° |
| 2026-04-22 13:06 | 55.50706 | 12.47236 | 3001 ft | 164 kts | 33° |
| 2026-04-22 13:06 | 55.51539 | 12.48497 | 2991 ft | 152 kts | 34° |
| 2026-04-22 13:06 | 55.52341 | 12.49731 | 2843 ft | 153 kts | 34° |
| 2026-04-22 13:06 | 55.53111 | 12.50951 | 2566 ft | 145 kts | 34° |
| 2026-04-22 13:07 | 55.53850 | 12.52152 | 2162 ft | 144 kts | 34° |
| 2026-04-22 13:07 | 55.54604 | 12.53340 | 1749 ft | 146 kts | 34° |
| 2026-04-22 13:07 | 55.55366 | 12.54492 | 1334 ft | 142 kts | 32° |
| 2026-04-22 13:07 | 55.56124 | 12.55598 | 950 ft | 140 kts | 31° |
| 2026-04-22 13:08 | 55.56873 | 12.56692 | 688 ft | 139 kts | 33° |
| 2026-04-22 13:08 | 55.57588 | 12.57823 | 500 ft | 137 kts | 34° |
| 2026-04-22 13:08 | 55.58291 | 12.58918 | 286 ft | 135 kts | 33° |
| 2026-04-22 13:08 | 55.58995 | 12.59994 | 102 ft | 134 kts | 36° |
| 2026-04-22 13:09 | 55.59669 | 12.61045 | 19 ft | 120 kts | 39° |
| 2026-04-22 13:09 | 55.60141 | 12.61776 | 20 ft | 59 kts | 41° |
| 2026-04-22 13:09 | 55.60425 | 12.62216 | 19 ft | 46 kts | 41° |
| 2026-04-22 13:09 | 55.60619 | 12.62517 | 21 ft | 31 kts | 40° |
| 2026-04-22 13:10 | 55.60778 | 12.62744 | 20 ft | 27 kts | 30° |
| 2026-04-22 13:10 | 55.60951 | 12.62842 | 18 ft | 24 kts | 8° |
| 2026-04-22 13:10 | 55.61108 | 12.62923 | 18 ft | 23 kts | 21° |
| 2026-04-22 13:10 | 55.61238 | 12.63096 | 18 ft | 24 kts | 41° |
| 2026-04-22 13:11 | 55.61363 | 12.63289 | 18 ft | 24 kts | 40° |
| 2026-04-22 13:11 | 55.61490 | 12.63486 | 18 ft | 24 kts | 41° |
| 2026-04-22 13:11 | 55.61619 | 12.63686 | 18 ft | 25 kts | 41° |
| 2026-04-22 13:11 | 55.61749 | 12.63886 | 18 ft | 25 kts | 41° |
| 2026-04-22 13:12 | 55.61873 | 12.64069 | 18 ft | 19 kts | 32° |
| 2026-04-22 13:12 | 55.61996 | 12.64176 | 18 ft | 20 kts | 25° |
| 2026-04-22 13:12 | 55.62120 | 12.64281 | 19 ft | 20 kts | 25° |
| 2026-04-22 13:12 | 55.62243 | 12.64403 | 16 ft | 19 kts | 51° |
| 2026-04-22 13:13 | 55.62300 | 12.64615 | 18 ft | 19 kts | 65° |
| 2026-04-22 13:13 | 55.62302 | 12.64790 | 18 ft | 12 kts | 104° |
| 2026-04-22 13:13 | 55.62318 | 12.64926 | 18 ft | 11 kts | 86° |
| 2026-04-22 13:13 | 55.62285 | 12.65049 | 18 ft | 12 kts | 123° |
| 2026-04-22 13:14 | 55.62286 | 12.65190 | 18 ft | 13 kts | 75° |
| 2026-04-22 13:14 | 55.62302 | 12.65317 | 19 ft | 5 kts | 44° |
| 2026-04-22 13:14 | 55.62334 | 12.65332 | 18 ft | 5 kts | 0° |
| 2026-04-22 13:14 | 55.62376 | 12.65331 | 18 ft | 6 kts | 359° |
| 2026-04-22 13:15 | 55.62424 | 12.65329 | 18 ft | 8 kts | 358° |
| 2026-04-22 13:15 | 55.62481 | 12.65326 | 18 ft | 9 kts | 359° |
| 2026-04-22 13:15 | 55.62544 | 12.65324 | 19 ft | 10 kts | 359° |
| 2026-04-22 13:15 | 55.62614 | 12.65320 | 19 ft | 10 kts | 351° |
| 2026-04-22 13:16 | 55.62657 | 12.65297 | 18 ft | 3 kts | 6° |
| 2026-04-22 13:16 | 55.62685 | 12.65308 | 18 ft | 5 kts | 17° |
| 2026-04-22 13:16 | 55.62710 | 12.65322 | 18 ft | 2 kts | 17° |
| 2026-04-22 13:16 | 55.62713 | 12.65323 | 18 ft | 0 kts | 17° |